Main page
METAR-TAF:

METAR-TAF

Airports :

Hamburg Airport

Hamburg, Germany

latitude: 53-38N, longitude: 010-00E, elevation: 16 m

Current weather observation

The report was made 49 minutes ago, at 00:20 UTC
Wind 3 kt from the East/Northeast
Temperature 15°C
Humidity 88%
Pressure 1020 hPa
Visibility 10 km or more
no clouds below 1500 m and no cumulonimbus

METAR: EDDH 250020Z AUTO 07003KT CAVOK 15/13 Q1020 NOSIG

Time: 03:09 (01:09 UTC)

Forecast

The report was made 2 hours and 9 minutes ago, at 23:00 UTC
Forecast valid from 25 at 00 UTC to 26 at 06 UTC
Wind 3 kt from the East/Northeast
Visibility 10 km or more
no clouds below 1500 m and no cumulonimbus
Becoming
from 25 at 11 UTC to 25 at 14 UTC
Wind 8 kt from the East
Becoming
from 25 at 20 UTC to 25 at 23 UTC
Wind 3 kt from the East/Northeast

TAF: EDDH 242300Z 2500/2606 07003KT CAVOK BECMG 2511/2514 08008KT BECMG 2520/2523 06003KT

Weather observations and forecasts of more than 4000 airports (METAR and TAF reports).

The available stations are represented by yellow and red dots on the map.

Hover mouse over dot to see the name of the station.

Then click to see weather observations and forecasts.

To change the map : click on the green buttons with a black cross to zoom in, on the green button with a dash to zoom out, or on the green arrows for adjacent maps.


METAR-TAF: